createdAt,value
2023-03-03T00:00:13.707Z,101824.31
2023-03-03T00:04:15.159Z,101834.63
2023-03-03T00:08:17.348Z,101824.22
2023-03-03T00:12:26.457Z,101828.06
2023-03-03T00:16:35.258Z,101838.16
2023-03-03T00:20:39.110Z,101848.31
2023-03-03T00:24:40.611Z,101848.94
2023-03-03T00:28:48.050Z,101844.06
2023-03-03T00:32:53.114Z,101839.88
2023-03-03T00:36:57.083Z,101830.81
2023-03-03T00:40:58.530Z,101815.59
2023-03-03T00:45:00.670Z,101809.06
2023-03-03T00:49:27.298Z,101804.63
2023-03-03T00:53:30.505Z,101814.50
2023-03-03T00:57:32.011Z,101799.19
2023-03-03T01:01:33.487Z,101794.88
2023-03-03T01:05:36.126Z,101792.44
2023-03-03T01:09:37.651Z,101795.44
2023-03-03T01:13:41.670Z,101788.91
2023-03-03T01:17:43.565Z,101796.56
2023-03-03T01:21:45.036Z,101795.59
2023-03-03T01:25:46.568Z,101788.03
2023-03-03T01:29:48.007Z,101789.16
2023-03-03T01:33:49.671Z,101784.41
2023-03-03T01:37:51.154Z,101784.03
2023-03-03T01:41:52.820Z,101787.06
2023-03-03T01:45:57.225Z,101778.16
2023-03-03T01:50:04.167Z,101760.44
2023-03-03T01:54:14.633Z,101766.22
2023-03-03T01:58:26.668Z,101765.44
2023-03-03T02:02:28.934Z,101756.03
2023-03-03T02:06:37.375Z,101755.19
2023-03-03T02:10:39.105Z,101755.72
2023-03-03T02:14:40.630Z,101753.63
2023-03-03T02:18:42.308Z,101760.69
2023-03-03T02:22:51.093Z,101777.66
2023-03-03T02:26:52.578Z,101777.09
2023-03-03T02:30:59.271Z,101772.00
2023-03-03T02:35:00.720Z,101776.78
2023-03-03T02:39:22.290Z,101791.91
2023-03-03T02:43:26.663Z,101794.94
2023-03-03T02:47:28.140Z,101785.34
2023-03-03T02:51:30.123Z,101784.84
2023-03-03T02:55:31.638Z,101785.38
2023-03-03T02:59:33.197Z,101790.25
2023-03-03T03:03:34.710Z,101790.16
2023-03-03T03:07:36.239Z,101783.53
2023-03-03T03:11:38.436Z,101793.78
2023-03-03T03:15:39.910Z,101800.34
2023-03-03T03:19:41.445Z,101813.41
2023-03-03T03:23:43.465Z,101799.25
2023-03-03T03:27:44.952Z,101817.06
2023-03-03T03:31:46.427Z,101827.22
2023-03-03T03:35:48.289Z,101823.09
2023-03-03T03:39:50.585Z,101813.22
2023-03-03T03:43:52.067Z,101820.41
2023-03-03T03:47:53.529Z,101828.03
2023-03-03T03:51:54.956Z,101825.91
2023-03-03T03:55:56.642Z,101816.19
2023-03-03T03:59:58.151Z,101812.00
2023-03-03T04:03:59.696Z,101813.22
2023-03-03T04:08:01.173Z,101794.22
2023-03-03T04:12:02.723Z,101795.09
2023-03-03T04:16:04.392Z,101790.09
2023-03-03T04:20:07.701Z,101796.22
2023-03-03T04:24:09.277Z,101789.09
2023-03-03T04:28:10.928Z,101785.66
2023-03-03T04:32:12.420Z,101795.69
2023-03-03T04:36:13.923Z,101779.06
2023-03-03T04:40:16.364Z,101785.66
2023-03-03T04:44:17.823Z,101788.81
2023-03-03T04:48:19.280Z,101778.03
2023-03-03T04:52:20.781Z,101788.25
2023-03-03T04:56:22.635Z,101794.56
2023-03-03T05:00:24.308Z,101804.59
2023-03-03T05:04:25.842Z,101798.50
2023-03-03T05:08:27.341Z,101799.94
2023-03-03T05:12:28.798Z,101795.78
2023-03-03T05:16:30.320Z,101777.88
2023-03-03T05:20:31.776Z,101773.31
2023-03-03T05:24:34.339Z,101783.72
2023-03-03T05:28:35.825Z,101792.78
2023-03-03T05:32:37.779Z,101788.16
2023-03-03T05:36:39.275Z,101779.56
2023-03-03T05:40:40.796Z,101794.81
2023-03-03T05:44:42.328Z,101791.13
2023-03-03T05:48:44.064Z,101792.63
2023-03-03T05:52:48.493Z,101798.72
2023-03-03T05:56:49.953Z,101809.47
2023-03-03T06:00:51.483Z,101805.25
2023-03-03T06:04:52.939Z,101808.09
2023-03-03T06:08:57.083Z,101810.25
2023-03-03T06:12:58.971Z,101812.28
2023-03-03T06:17:00.511Z,101818.50
2023-03-03T06:21:02.013Z,101805.66
2023-03-03T06:25:03.778Z,101807.84
2023-03-03T06:29:05.265Z,101824.94
2023-03-03T06:33:06.738Z,101833.28
2023-03-03T06:37:08.243Z,101831.31
2023-03-03T06:41:10.018Z,101833.78
2023-03-03T06:45:12.092Z,101839.47
2023-03-03T06:49:13.624Z,101833.66
2023-03-03T06:53:18.111Z,101832.72
2023-03-03T06:57:31.086Z,101844.22
2023-03-03T07:01:37.158Z,101844.97
2023-03-03T07:05:38.627Z,101863.09
2023-03-03T07:09:40.116Z,101862.84
2023-03-03T07:13:46.674Z,101872.72
2023-03-03T07:17:51.231Z,101873.13
2023-03-03T07:21:53.172Z,101869.03
2023-03-03T07:25:55.315Z,101872.94
2023-03-03T07:30:18.924Z,101856.88
2023-03-03T07:34:30.327Z,101869.97
2023-03-03T07:38:39.598Z,101866.72
2023-03-03T07:42:44.312Z,101896.09
2023-03-03T07:46:50.393Z,101879.19
2023-03-03T07:50:52.209Z,101888.91
2023-03-03T07:54:56.462Z,101887.13
2023-03-03T07:58:58.542Z,101891.88
2023-03-03T08:03:05.798Z,101885.88
2023-03-03T08:07:23.383Z,101894.38
2023-03-03T08:11:25.681Z,101896.06
2023-03-03T08:15:36.602Z,101895.72
2023-03-03T08:19:38.125Z,101895.75
2023-03-03T08:23:39.824Z,101895.38
2023-03-03T08:27:41.271Z,101896.25
2023-03-03T08:31:42.741Z,101892.69
2023-03-03T08:35:44.931Z,101887.03
2023-03-03T08:39:46.457Z,101887.22
2023-03-03T08:43:48.292Z,101883.34
2023-03-03T08:47:49.858Z,101882.69
2023-03-03T08:51:52.630Z,101892.81
2023-03-03T08:55:54.193Z,101897.34
2023-03-03T08:59:55.667Z,101898.09
2023-03-03T09:03:57.882Z,101903.47
2023-03-03T09:08:00.482Z,101896.03
2023-03-03T09:12:19.665Z,101899.50
2023-03-03T09:16:22.293Z,101891.69
2023-03-03T09:20:33.654Z,101877.69
2023-03-03T09:24:36.415Z,101881.66
2023-03-03T09:28:37.991Z,101883.38
2023-03-03T09:32:39.755Z,101877.25
2023-03-03T09:36:41.299Z,101882.34
2023-03-03T09:41:12.931Z,101881.84
2023-03-03T09:45:23.324Z,101885.78
2023-03-03T09:49:45.196Z,101893.16
2023-03-03T09:54:05.422Z,101893.66
2023-03-03T09:58:34.807Z,101897.63
2023-03-03T10:02:58.019Z,101882.94
2023-03-03T10:07:33.372Z,101881.88
2023-03-03T10:12:05.179Z,101885.59
2023-03-03T10:16:25.345Z,101872.06
2023-03-03T10:20:49.723Z,101884.22
2023-03-03T10:25:13.568Z,101876.50
2023-03-03T10:30:12.132Z,101871.28
2023-03-03T10:34:50.287Z,101872.25
2023-03-03T10:38:55.302Z,101870.16
2023-03-03T10:43:29.789Z,101873.44
2023-03-03T10:47:38.922Z,101875.25
2023-03-03T10:51:59.119Z,101869.88
2023-03-03T10:56:52.405Z,101865.81
2023-03-03T11:01:19.214Z,101858.75
2023-03-03T11:06:06.209Z,101878.75
2023-03-03T11:10:26.231Z,101874.38
2023-03-03T11:14:40.263Z,101866.00
2023-03-03T11:19:11.333Z,101870.28
2023-03-03T11:23:15.677Z,101865.63
2023-03-03T11:27:29.328Z,101867.53
2023-03-03T11:31:42.480Z,101863.97
2023-03-03T11:36:14.910Z,101864.53
2023-03-03T11:40:28.623Z,101864.53
2023-03-03T11:44:42.072Z,101868.31
2023-03-03T11:48:46.590Z,101866.63
2023-03-03T11:52:54.552Z,101856.81
2023-03-03T11:57:16.457Z,101871.88
2023-03-03T12:01:17.888Z,101848.13
2023-03-03T12:05:39.114Z,101843.22
2023-03-03T12:10:05.248Z,101839.94
2023-03-03T12:14:39.077Z,101827.88
2023-03-03T12:19:25.313Z,101814.47
2023-03-03T12:24:00.237Z,101816.41
2023-03-03T12:28:07.617Z,101820.50
2023-03-03T12:32:56.486Z,101805.97
2023-03-03T12:37:30.136Z,101800.53
2023-03-03T12:41:52.172Z,101805.19
2023-03-03T12:45:56.499Z,101789.00
2023-03-03T12:50:10.151Z,101791.50
2023-03-03T12:54:37.417Z,101792.03
2023-03-03T12:59:23.628Z,101787.94
2023-03-03T13:03:55.080Z,101785.22
2023-03-03T13:08:31.299Z,101779.47
2023-03-03T13:12:46.993Z,101773.16
2023-03-03T13:16:57.560Z,101776.22
2023-03-03T13:21:11.357Z,101772.19
2023-03-03T13:25:31.603Z,101758.50
2023-03-03T13:29:49.733Z,101756.56
2023-03-03T13:34:01.944Z,101762.72
2023-03-03T13:38:06.201Z,101758.88
2023-03-03T13:42:13.530Z,101757.75
2023-03-03T13:46:25.852Z,101749.41
2023-03-03T13:50:38.503Z,101756.41
2023-03-03T13:55:07.269Z,101749.22
2023-03-03T13:59:47.673Z,101740.66
2023-03-03T14:03:49.462Z,101729.31
2023-03-03T14:08:00.735Z,101722.91
2023-03-03T14:12:33.635Z,101732.69
2023-03-03T14:17:22.971Z,101716.03
2023-03-03T14:21:30.495Z,101725.69
2023-03-03T14:25:57.687Z,101718.69
2023-03-03T14:29:59.170Z,101711.81
2023-03-03T14:34:11.057Z,101713.53
2023-03-03T14:38:18.799Z,101711.31
2023-03-03T14:42:33.809Z,101705.41
2023-03-03T14:46:41.627Z,101687.25
2023-03-03T14:50:49.883Z,101696.59
2023-03-03T14:54:58.155Z,101683.09
2023-03-03T14:59:23.770Z,101694.22
2023-03-03T15:03:28.309Z,101686.72
2023-03-03T15:07:40.043Z,101691.97
2023-03-03T15:11:44.147Z,101676.59
2023-03-03T15:15:59.565Z,101684.13
2023-03-03T15:20:20.107Z,101673.50
2023-03-03T15:24:33.828Z,101669.34
2023-03-03T15:29:13.908Z,101657.59
2023-03-03T15:33:26.531Z,101663.13
2023-03-03T15:37:39.505Z,101654.03
2023-03-03T15:41:47.714Z,101652.00
2023-03-03T15:46:26.740Z,101651.53
2023-03-03T15:50:50.226Z,101644.91
2023-03-03T15:55:13.393Z,101644.25
2023-03-03T15:59:36.394Z,101639.44
2023-03-03T16:03:47.185Z,101642.88
2023-03-03T16:08:15.993Z,101643.63
2023-03-03T16:12:20.295Z,101636.75
2023-03-03T16:16:40.594Z,101645.75
2023-03-03T16:21:19.653Z,101635.69
2023-03-03T16:26:12.594Z,101631.81
2023-03-03T16:30:34.547Z,101619.88
2023-03-03T16:34:55.937Z,101623.00
2023-03-03T16:39:05.907Z,101631.19
2023-03-03T16:43:07.966Z,101626.63
2023-03-03T16:47:33.413Z,101628.19
2023-03-03T16:51:41.368Z,101629.59
2023-03-03T16:55:57.730Z,101622.09
2023-03-03T17:00:22.396Z,101617.34
2023-03-03T17:04:42.892Z,101621.22
2023-03-03T17:09:07.761Z,101624.50
2023-03-03T17:13:43.381Z,101623.91
2023-03-03T17:18:05.057Z,101631.13
2023-03-03T17:22:12.683Z,101621.72
2023-03-03T17:26:58.862Z,101631.09
2023-03-03T17:31:26.752Z,101625.03
2023-03-03T17:35:54.846Z,101624.56
2023-03-03T17:40:14.934Z,101618.59
2023-03-03T17:44:21.562Z,101630.25
2023-03-03T17:48:32.177Z,101630.94
2023-03-03T17:53:18.997Z,101629.50
2023-03-03T17:57:38.817Z,101619.94
2023-03-03T18:01:56.945Z,101625.59
2023-03-03T18:06:19.444Z,101622.34
2023-03-03T18:10:51.318Z,101623.47
2023-03-03T18:15:17.567Z,101615.72
2023-03-03T18:20:01.829Z,101612.56
2023-03-03T18:24:24.868Z,101614.53
2023-03-03T18:28:49.356Z,101611.63
2023-03-03T18:32:56.531Z,101607.09
2023-03-03T18:37:30.027Z,101608.31
2023-03-03T18:41:34.109Z,101607.84
2023-03-03T18:45:35.694Z,101600.38
2023-03-03T18:49:49.210Z,101603.34
2023-03-03T18:54:30.999Z,101595.13
2023-03-03T18:58:41.726Z,101602.53
2023-03-03T19:02:53.789Z,101599.75
2023-03-03T19:07:03.190Z,101599.50
2023-03-03T19:11:04.697Z,101597.22
2023-03-03T19:15:28.278Z,101592.94
2023-03-03T19:19:35.023Z,101593.41
2023-03-03T19:24:05.971Z,101592.53
2023-03-03T19:28:13.212Z,101600.72
2023-03-03T19:32:39.347Z,101584.00
2023-03-03T19:36:56.796Z,101581.28
2023-03-03T19:41:20.789Z,101574.31
2023-03-03T19:45:33.632Z,101570.28
2023-03-03T19:50:12.481Z,101579.56
2023-03-03T19:54:48.714Z,101567.44
2023-03-03T19:59:09.522Z,101574.84
2023-03-03T20:03:50.426Z,101580.03
2023-03-03T20:08:11.043Z,101582.34
2023-03-03T20:12:37.503Z,101569.94
2023-03-03T20:16:41.651Z,101569.84
2023-03-03T20:21:34.394Z,101563.28
2023-03-03T20:25:57.117Z,101562.16
2023-03-03T20:30:17.220Z,101561.09
2023-03-03T20:34:37.478Z,101553.19
2023-03-03T20:38:49.461Z,101553.41
2023-03-03T20:43:11.118Z,101553.19
2023-03-03T20:47:22.074Z,101547.66
2023-03-03T20:52:01.086Z,101542.13
2023-03-03T20:56:23.808Z,101555.59
2023-03-03T21:00:31.358Z,101541.78
2023-03-03T21:04:36.320Z,101536.81
2023-03-03T21:08:49.753Z,101530.75
2023-03-03T21:12:56.763Z,101521.94
2023-03-03T21:17:02.648Z,101527.53
2023-03-03T21:21:05.475Z,101526.00
2023-03-03T21:25:07.207Z,101523.06
2023-03-03T21:29:08.730Z,101508.44
2023-03-03T21:33:10.335Z,101514.63
2023-03-03T21:37:15.310Z,101512.25
2023-03-03T21:41:17.810Z,101511.91
2023-03-03T21:45:23.673Z,101503.75
2023-03-03T21:49:25.386Z,101503.81
2023-03-03T21:53:29.483Z,101490.00
2023-03-03T21:57:31.068Z,101501.34
2023-03-03T22:01:32.582Z,101490.41
2023-03-03T22:05:34.850Z,101486.31
2023-03-03T22:09:36.900Z,101484.88
2023-03-03T22:13:39.916Z,101489.59
2023-03-03T22:17:43.059Z,101474.13
2023-03-03T22:21:44.573Z,101476.84
2023-03-03T22:25:46.570Z,101464.88
2023-03-03T22:29:48.077Z,101459.69
2023-03-03T22:33:50.386Z,101458.72
2023-03-03T22:37:51.849Z,101455.44
2023-03-03T22:41:53.483Z,101442.09
2023-03-03T22:45:55.623Z,101434.78
2023-03-03T22:49:57.114Z,101423.03
2023-03-03T22:53:58.810Z,101421.41
2023-03-03T22:58:00.370Z,101416.47
2023-03-03T23:02:01.957Z,101411.34
2023-03-03T23:06:03.654Z,101414.25
2023-03-03T23:10:06.622Z,101409.84
2023-03-03T23:14:08.120Z,101405.66
2023-03-03T23:18:09.614Z,101393.59
2023-03-03T23:22:11.040Z,101383.09
2023-03-03T23:26:12.542Z,101388.91
2023-03-03T23:30:16.301Z,101383.28
2023-03-03T23:34:17.961Z,101381.66
2023-03-03T23:38:19.515Z,101380.63
2023-03-03T23:42:21.152Z,101359.66
2023-03-03T23:46:22.671Z,101365.25
2023-03-03T23:50:24.187Z,101362.44
2023-03-03T23:54:25.707Z,101358.19
2023-03-03T23:58:27.170Z,101347.31
